sensor_id;sensor_type;location;lat;lon;timestamp;pressure;altitude;pressure_sealevel;temperature;humidity
86138;BME280;76796;49.056;15.810;2024-02-26T00:01:57;95367.75;;;3.80;74.06
86138;BME280;76796;49.056;15.810;2024-02-26T00:04:22;95366.44;;;3.86;73.56
86138;BME280;76796;49.056;15.810;2024-02-26T00:06:48;95373.44;;;3.85;74.05
86138;BME280;76796;49.056;15.810;2024-02-26T00:09:22;95371.78;;;3.84;73.84
86138;BME280;76796;49.056;15.810;2024-02-26T00:11:47;95366.34;;;3.76;73.96
86138;BME280;76796;49.056;15.810;2024-02-26T00:14:13;95368.75;;;3.68;74.07
86138;BME280;76796;49.056;15.810;2024-02-26T00:16:41;95360.19;;;3.66;73.41
86138;BME280;76796;49.056;15.810;2024-02-26T00:19:07;95354.00;;;3.67;73.59
86138;BME280;76796;49.056;15.810;2024-02-26T00:21:33;95360.88;;;3.68;74.04
86138;BME280;76796;49.056;15.810;2024-02-26T00:23:58;95358.88;;;3.72;74.20
86138;BME280;76796;49.056;15.810;2024-02-26T00:26:31;95363.88;;;3.75;73.76
86138;BME280;76796;49.056;15.810;2024-02-26T00:28:56;95362.78;;;3.77;73.53
86138;BME280;76796;49.056;15.810;2024-02-26T00:31:22;95350.31;;;3.70;73.93
86138;BME280;76796;49.056;15.810;2024-02-26T00:33:47;95360.78;;;3.70;73.56
86138;BME280;76796;49.056;15.810;2024-02-26T00:36:13;95357.09;;;3.61;74.77
86138;BME280;76796;49.056;15.810;2024-02-26T00:38:38;95347.72;;;3.58;74.00
86138;BME280;76796;49.056;15.810;2024-02-26T00:41:05;95346.19;;;3.56;73.97
86138;BME280;76796;49.056;15.810;2024-02-26T00:43:38;95352.13;;;3.58;73.76
86138;BME280;76796;49.056;15.810;2024-02-26T00:46:10;95337.38;;;3.57;74.50
86138;BME280;76796;49.056;15.810;2024-02-26T00:48:35;95343.31;;;3.59;73.90
86138;BME280;76796;49.056;15.810;2024-02-26T00:51:02;95349.13;;;3.62;74.38
86138;BME280;76796;49.056;15.810;2024-02-26T00:53:30;95338.41;;;3.66;74.47
86138;BME280;76796;49.056;15.810;2024-02-26T00:55:56;95335.53;;;3.69;74.79
86138;BME280;76796;49.056;15.810;2024-02-26T00:58:22;95328.31;;;3.72;75.17
86138;BME280;76796;49.056;15.810;2024-02-26T01:00:54;95334.13;;;3.76;74.73
86138;BME280;76796;49.056;15.810;2024-02-26T01:03:20;95334.94;;;3.76;75.76
86138;BME280;76796;49.056;15.810;2024-02-26T01:05:45;95332.34;;;3.76;75.01
86138;BME280;76796;49.056;15.810;2024-02-26T01:08:11;95332.22;;;3.78;74.75
86138;BME280;76796;49.056;15.810;2024-02-26T01:10:36;95324.22;;;3.79;74.74
86138;BME280;76796;49.056;15.810;2024-02-26T01:13:02;95320.66;;;3.80;74.62
86138;BME280;76796;49.056;15.810;2024-02-26T01:15:28;95326.72;;;3.81;75.06
86138;BME280;76796;49.056;15.810;2024-02-26T01:18:00;95325.88;;;3.80;74.65
86138;BME280;76796;49.056;15.810;2024-02-26T01:20:27;95324.47;;;3.76;74.53
86138;BME280;76796;49.056;15.810;2024-02-26T01:22:53;95320.47;;;3.72;74.99
86138;BME280;76796;49.056;15.810;2024-02-26T01:25:19;95314.53;;;3.70;75.02
86138;BME280;76796;49.056;15.810;2024-02-26T01:27:44;95310.34;;;3.68;75.66
86138;BME280;76796;49.056;15.810;2024-02-26T01:30:10;95307.84;;;3.66;75.39
86138;BME280;76796;49.056;15.810;2024-02-26T01:32:36;95309.88;;;3.62;75.29
86138;BME280;76796;49.056;15.810;2024-02-26T01:35:08;95306.44;;;3.62;75.39
86138;BME280;76796;49.056;15.810;2024-02-26T01:37:36;95309.06;;;3.62;75.55
86138;BME280;76796;49.056;15.810;2024-02-26T01:40:09;95313.47;;;3.61;76.26
86138;BME280;76796;49.056;15.810;2024-02-26T01:42:45;95315.50;;;3.58;76.29
86138;BME280;76796;49.056;15.810;2024-02-26T01:45:15;95312.75;;;3.59;76.13
86138;BME280;76796;49.056;15.810;2024-02-26T01:47:46;95316.78;;;3.52;77.00
86138;BME280;76796;49.056;15.810;2024-02-26T01:50:19;95312.06;;;3.46;76.12
86138;BME280;76796;49.056;15.810;2024-02-26T01:52:46;95310.16;;;3.48;76.00
86138;BME280;76796;49.056;15.810;2024-02-26T01:55:13;95301.47;;;3.48;77.25
86138;BME280;76796;49.056;15.810;2024-02-26T01:57:46;95298.72;;;3.49;76.44
86138;BME280;76796;49.056;15.810;2024-02-26T02:00:14;95302.88;;;3.52;76.09
86138;BME280;76796;49.056;15.810;2024-02-26T02:02:41;95302.88;;;3.52;76.19
86138;BME280;76796;49.056;15.810;2024-02-26T02:05:08;95297.78;;;3.50;76.83
86138;BME280;76796;49.056;15.810;2024-02-26T02:07:41;95295.03;;;3.52;76.32
86138;BME280;76796;49.056;15.810;2024-02-26T02:10:07;95295.03;;;3.52;76.05
86138;BME280;76796;49.056;15.810;2024-02-26T02:12:33;95292.53;;;3.50;75.76
86138;BME280;76796;49.056;15.810;2024-02-26T02:15:00;95292.66;;;3.49;76.14
86138;BME280;76796;49.056;15.810;2024-02-26T02:17:28;95291.13;;;3.46;76.21
86138;BME280;76796;49.056;15.810;2024-02-26T02:19:53;95291.25;;;3.45;76.34
86138;BME280;76796;49.056;15.810;2024-02-26T02:22:19;95289.34;;;3.47;76.95
86138;BME280;76796;49.056;15.810;2024-02-26T02:24:52;95289.84;;;3.41;76.50
86138;BME280;76796;49.056;15.810;2024-02-26T02:27:18;95289.16;;;3.39;77.43
86138;BME280;76796;49.056;15.810;2024-02-26T02:29:44;95291.97;;;3.36;77.07
86138;BME280;76796;49.056;15.810;2024-02-26T02:32:10;95285.09;;;3.35;77.30
86138;BME280;76796;49.056;15.810;2024-02-26T02:34:36;95278.31;;;3.32;77.22
86138;BME280;76796;49.056;15.810;2024-02-26T02:37:01;95277.75;;;3.28;77.60
86138;BME280;76796;49.056;15.810;2024-02-26T02:39:27;95285.47;;;3.30;77.05
86138;BME280;76796;49.056;15.810;2024-02-26T02:42:06;95281.19;;;3.29;77.70
86138;BME280;76796;49.056;15.810;2024-02-26T02:44:31;95282.03;;;3.29;77.26
86138;BME280;76796;49.056;15.810;2024-02-26T02:46:57;95273.34;;;3.29;77.88
86138;BME280;76796;49.056;15.810;2024-02-26T02:49:22;95276.09;;;3.27;77.54
86138;BME280;76796;49.056;15.810;2024-02-26T02:51:55;95270.84;;;3.27;77.66
86138;BME280;76796;49.056;15.810;2024-02-26T02:54:24;95272.50;;;3.28;78.35
86138;BME280;76796;49.056;15.810;2024-02-26T03:00:14;95263.84;;;3.28;78.62
86138;BME280;76796;49.056;15.810;2024-02-26T03:02:40;95265.63;;;3.27;78.64
86138;BME280;76796;49.056;15.810;2024-02-26T03:05:19;95267.03;;;3.31;77.52
86138;BME280;76796;49.056;15.810;2024-02-26T03:07:44;95264.41;;;3.31;77.97
86138;BME280;76796;49.056;15.810;2024-02-26T03:10:10;95260.59;;;3.36;78.04
86138;BME280;76796;49.056;15.810;2024-02-26T03:12:35;95273.59;;;3.37;78.03
86138;BME280;76796;49.056;15.810;2024-02-26T03:15:01;95262.50;;;3.33;78.51
86138;BME280;76796;49.056;15.810;2024-02-26T03:17:34;95279.88;;;3.35;77.74
86138;BME280;76796;49.056;15.810;2024-02-26T03:19:59;95273.69;;;3.36;77.30
86138;BME280;76796;49.056;15.810;2024-02-26T03:22:25;95270.84;;;3.39;77.66
86138;BME280;76796;49.056;15.810;2024-02-26T03:24:51;95266.56;;;3.38;77.30
86138;BME280;76796;49.056;15.810;2024-02-26T03:27:16;95271.06;;;3.36;77.79
86138;BME280;76796;49.056;15.810;2024-02-26T03:29:42;95265.13;;;3.33;77.49
86138;BME280;76796;49.056;15.810;2024-02-26T03:32:08;95270.34;;;3.33;77.14
86138;BME280;76796;49.056;15.810;2024-02-26T03:34:40;95253.97;;;3.31;77.07
86138;BME280;76796;49.056;15.810;2024-02-26T03:37:06;95254.78;;;3.32;77.09
86138;BME280;76796;49.056;15.810;2024-02-26T03:39:33;95252.16;;;3.32;76.92
86138;BME280;76796;49.056;15.810;2024-02-26T03:42:12;95261.34;;;3.38;76.70
86138;BME280;76796;49.056;15.810;2024-02-26T03:44:37;95258.72;;;3.38;76.95
86138;BME280;76796;49.056;15.810;2024-02-26T03:47:03;95261.91;;;3.41;76.80
86138;BME280;76796;49.056;15.810;2024-02-26T03:49:28;95252.97;;;3.44;76.71
86138;BME280;76796;49.056;15.810;2024-02-26T03:52:01;95253.69;;;3.46;77.05
86138;BME280;76796;49.056;15.810;2024-02-26T03:54:26;95252.72;;;3.47;77.06
86138;BME280;76796;49.056;15.810;2024-02-26T03:56:52;95251.78;;;3.48;77.02
86138;BME280;76796;49.056;15.810;2024-02-26T03:59:17;95261.03;;;3.52;77.31
86138;BME280;76796;49.056;15.810;2024-02-26T04:01:47;95249.63;;;3.53;77.20
86138;BME280;76796;49.056;15.810;2024-02-26T04:04:13;95255.44;;;3.56;77.74
86138;BME280;76796;49.056;15.810;2024-02-26T04:06:38;95253.53;;;3.58;77.77
86138;BME280;76796;49.056;15.810;2024-02-26T04:09:10;95249.13;;;3.59;78.77
86138;BME280;76796;49.056;15.810;2024-02-26T04:11:35;95251.75;;;3.59;78.91
86138;BME280;76796;49.056;15.810;2024-02-26T04:14:01;95250.66;;;3.61;79.62
86138;BME280;76796;49.056;15.810;2024-02-26T04:16:28;95247.09;;;3.62;79.24
86138;BME280;76796;49.056;15.810;2024-02-26T04:18:54;95244.34;;;3.64;79.77
86138;BME280;76796;49.056;15.810;2024-02-26T04:21:20;95240.50;;;3.68;80.80
86138;BME280;76796;49.056;15.810;2024-02-26T04:23:45;95239.56;;;3.69;80.46
86138;BME280;76796;49.056;15.810;2024-02-26T04:26:17;95244.56;;;3.72;81.10
86138;BME280;76796;49.056;15.810;2024-02-26T04:28:42;95242.50;;;3.76;80.35
86138;BME280;76796;49.056;15.810;2024-02-26T04:31:08;95250.94;;;3.79;81.55
86138;BME280;76796;49.056;15.810;2024-02-26T04:33:34;95244.50;;;3.83;81.23
86138;BME280;76796;49.056;15.810;2024-02-26T04:36:00;95254.59;;;3.88;81.52
86138;BME280;76796;49.056;15.810;2024-02-26T04:38:25;95250.19;;;3.88;82.07
86138;BME280;76796;49.056;15.810;2024-02-26T04:40:51;95252.44;;;3.93;81.89
86138;BME280;76796;49.056;15.810;2024-02-26T04:43:23;95258.09;;;3.98;81.71
86138;BME280;76796;49.056;15.810;2024-02-26T04:45:55;95263.09;;;4.01;81.85
86138;BME280;76796;49.056;15.810;2024-02-26T04:48:22;95254.16;;;4.04;81.33
86138;BME280;76796;49.056;15.810;2024-02-26T04:50:48;95251.16;;;4.08;81.38
86138;BME280;76796;49.056;15.810;2024-02-26T04:53:14;95248.16;;;4.13;82.16
86138;BME280;76796;49.056;15.810;2024-02-26T04:55:39;95245.28;;;4.16;81.48
86138;BME280;76796;49.056;15.810;2024-02-26T04:58:04;95248.84;;;4.15;83.22
86138;BME280;76796;49.056;15.810;2024-02-26T05:00:37;95234.09;;;4.14;83.31
86138;BME280;76796;49.056;15.810;2024-02-26T05:03:02;95243.91;;;4.01;84.79
86138;BME280;76796;49.056;15.810;2024-02-26T05:05:28;95240.75;;;3.97;85.92
86138;BME280;76796;49.056;15.810;2024-02-26T05:07:54;95242.91;;;3.92;86.76
86138;BME280;76796;49.056;15.810;2024-02-26T05:10:19;95242.13;;;3.80;87.44
86138;BME280;76796;49.056;15.810;2024-02-26T05:12:45;95234.50;;;3.88;87.01
86138;BME280;76796;49.056;15.810;2024-02-26T05:15:10;95230.00;;;3.79;87.38
86138;BME280;76796;49.056;15.810;2024-02-26T05:17:44;95235.09;;;3.81;87.81
86138;BME280;76796;49.056;15.810;2024-02-26T05:20:10;95236.50;;;3.85;87.76
86138;BME280;76796;49.056;15.810;2024-02-26T05:22:36;95232.94;;;3.86;87.56
86138;BME280;76796;49.056;15.810;2024-02-26T05:25:03;95235.75;;;3.73;88.38
86138;BME280;76796;49.056;15.810;2024-02-26T05:27:30;95237.16;;;3.77;88.96
86138;BME280;76796;49.056;15.810;2024-02-26T05:29:55;95243.34;;;3.76;88.80
86138;BME280;76796;49.056;15.810;2024-02-26T05:32:21;95239.56;;;3.69;89.29
86138;BME280;76796;49.056;15.810;2024-02-26T05:34:53;95236.94;;;3.69;89.44
86138;BME280;76796;49.056;15.810;2024-02-26T05:37:19;95246.34;;;3.72;89.30
86138;BME280;76796;49.056;15.810;2024-02-26T05:39:45;95238.41;;;3.62;89.92
86138;BME280;76796;49.056;15.810;2024-02-26T05:42:21;95236.50;;;3.64;89.77
86138;BME280;76796;49.056;15.810;2024-02-26T05:44:47;95238.41;;;3.62;89.96
86138;BME280;76796;49.056;15.810;2024-02-26T05:47:12;95250.91;;;3.58;89.72
86138;BME280;76796;49.056;15.810;2024-02-26T05:49:39;95247.31;;;3.71;89.66
86138;BME280;76796;49.056;15.810;2024-02-26T05:52:11;95241.47;;;3.67;89.78
86138;BME280;76796;49.056;15.810;2024-02-26T05:54:36;95242.38;;;3.77;89.28
86138;BME280;76796;49.056;15.810;2024-02-26T05:57:02;95245.72;;;3.79;89.38
86138;BME280;76796;49.056;15.810;2024-02-26T05:59:28;95248.13;;;3.71;89.78
86138;BME280;76796;49.056;15.810;2024-02-26T06:01:53;95254.44;;;3.69;89.84
86138;BME280;76796;49.056;15.810;2024-02-26T06:04:19;95255.25;;;3.69;90.15
86138;BME280;76796;49.056;15.810;2024-02-26T06:06:44;95259.44;;;3.72;90.02
86138;BME280;76796;49.056;15.810;2024-02-26T06:09:17;95257.78;;;3.71;90.09
86138;BME280;76796;49.056;15.810;2024-02-26T06:11:42;95263.00;;;3.71;89.70
86138;BME280;76796;49.056;15.810;2024-02-26T06:14:08;95269.06;;;3.71;89.78
86138;BME280;76796;49.056;15.810;2024-02-26T06:16:33;95271.69;;;3.71;89.87
86138;BME280;76796;49.056;15.810;2024-02-26T06:19:00;95273.47;;;3.71;89.93
86138;BME280;76796;49.056;15.810;2024-02-26T06:21:25;95271.19;;;3.77;89.62
86138;BME280;76796;49.056;15.810;2024-02-26T06:23:51;95276.66;;;3.74;89.81
86138;BME280;76796;49.056;15.810;2024-02-26T06:26:23;95270.22;;;3.78;89.81
86138;BME280;76796;49.056;15.810;2024-02-26T06:28:48;95272.66;;;3.70;89.86
86138;BME280;76796;49.056;15.810;2024-02-26T06:31:14;95273.22;;;3.74;90.02
86138;BME280;76796;49.056;15.810;2024-02-26T06:33:39;95282.84;;;3.73;89.96
86138;BME280;76796;49.056;15.810;2024-02-26T06:36:05;95290.47;;;3.76;89.79
86138;BME280;76796;49.056;15.810;2024-02-26T06:38:30;95292.94;;;3.78;89.72
86138;BME280;76796;49.056;15.810;2024-02-26T06:40:56;95299.00;;;3.78;89.73
86138;BME280;76796;49.056;15.810;2024-02-26T06:43:28;95299.72;;;3.80;89.60
86138;BME280;76796;49.056;15.810;2024-02-26T06:46:00;95314.81;;;3.88;89.63
86138;BME280;76796;49.056;15.810;2024-02-26T06:48:26;95306.34;;;3.84;89.22
86138;BME280;76796;49.056;15.810;2024-02-26T06:50:51;95309.44;;;3.89;89.20
86138;BME280;76796;49.056;15.810;2024-02-26T06:53:17;95319.66;;;3.92;89.10
86138;BME280;76796;49.056;15.810;2024-02-26T06:55:42;95323.72;;;3.85;89.31
86138;BME280;76796;49.056;15.810;2024-02-26T07:01:36;95323.50;;;3.88;89.51
86138;BME280;76796;49.056;15.810;2024-02-26T07:04:01;95317.34;;;3.78;89.84
86138;BME280;76796;49.056;15.810;2024-02-26T07:06:28;95328.38;;;3.82;89.33
86138;BME280;76796;49.056;15.810;2024-02-26T07:08:53;95327.53;;;3.81;89.53
86138;BME280;76796;49.056;15.810;2024-02-26T07:11:19;95323.72;;;3.85;89.51
86138;BME280;76796;49.056;15.810;2024-02-26T07:13:47;95326.81;;;3.90;89.59
86138;BME280;76796;49.056;15.810;2024-02-26T07:16:15;95322.88;;;3.85;89.02
86138;BME280;76796;49.056;15.810;2024-02-26T07:18:47;95330.41;;;3.78;89.23
86138;BME280;76796;49.056;15.810;2024-02-26T07:21:12;95327.09;;;3.76;89.47
86138;BME280;76796;49.056;15.810;2024-02-26T07:23:38;95328.94;;;3.85;89.51
86138;BME280;76796;49.056;15.810;2024-02-26T07:26:03;95321.94;;;3.86;89.59
86138;BME280;76796;49.056;15.810;2024-02-26T07:28:29;95319.00;;;3.79;89.79
86138;BME280;76796;49.056;15.810;2024-02-26T07:30:54;95320.66;;;3.80;89.89
86138;BME280;76796;49.056;15.810;2024-02-26T07:33:20;95308.53;;;3.79;89.47
86138;BME280;76796;49.056;15.810;2024-02-26T07:36:11;95326.41;;;3.74;89.36
86138;BME280;76796;49.056;15.810;2024-02-26T07:38:36;95321.72;;;3.78;89.13
86138;BME280;76796;49.056;15.810;2024-02-26T07:41:09;95311.47;;;3.86;89.32
86138;BME280;76796;49.056;15.810;2024-02-26T07:43:48;95315.41;;;3.80;89.57
86138;BME280;76796;49.056;15.810;2024-02-26T07:46:14;95322.78;;;3.86;89.69
86138;BME280;76796;49.056;15.810;2024-02-26T07:48:39;95319.09;;;3.89;89.78
86138;BME280;76796;49.056;15.810;2024-02-26T07:51:14;95319.41;;;3.96;89.54
86138;BME280;76796;49.056;15.810;2024-02-26T07:53:40;95327.06;;;3.87;89.43
86138;BME280;76796;49.056;15.810;2024-02-26T07:56:06;95319.09;;;3.89;89.28
86138;BME280;76796;49.056;15.810;2024-02-26T07:58:32;95335.34;;;4.04;88.85
86138;BME280;76796;49.056;15.810;2024-02-26T08:00:58;95336.53;;;4.00;88.48
86138;BME280;76796;49.056;15.810;2024-02-26T08:03:24;95326.69;;;3.92;88.81
86138;BME280;76796;49.056;15.810;2024-02-26T08:05:51;95329.31;;;3.92;88.54
86138;BME280;76796;49.056;15.810;2024-02-26T08:08:23;95333.25;;;3.86;88.65
86138;BME280;76796;49.056;15.810;2024-02-26T08:10:49;95338.44;;;3.98;88.35
86138;BME280;76796;49.056;15.810;2024-02-26T08:13:14;95340.34;;;3.96;88.95
86138;BME280;76796;49.056;15.810;2024-02-26T08:15:39;95345.59;;;3.96;88.51
86138;BME280;76796;49.056;15.810;2024-02-26T08:18:05;95332.38;;;3.97;88.48
86138;BME280;76796;49.056;15.810;2024-02-26T08:20:31;95332.38;;;3.97;88.05
86138;BME280;76796;49.056;15.810;2024-02-26T08:22:57;95348.09;;;3.97;87.97
86138;BME280;76796;49.056;15.810;2024-02-26T08:25:29;95348.44;;;4.04;88.10
86138;BME280;76796;49.056;15.810;2024-02-26T08:27:55;95348.19;;;4.07;88.15
86138;BME280;76796;49.056;15.810;2024-02-26T08:30:20;95352.91;;;4.13;88.05
86138;BME280;76796;49.056;15.810;2024-02-26T08:32:47;95353.84;;;4.12;88.18
86138;BME280;76796;49.056;15.810;2024-02-26T08:35:13;95354.16;;;3.98;88.28
86138;BME280;76796;49.056;15.810;2024-02-26T08:37:38;95343.91;;;4.06;88.21
86138;BME280;76796;49.056;15.810;2024-02-26T08:40:05;95356.09;;;4.16;88.41
86138;BME280;76796;49.056;15.810;2024-02-26T08:42:44;95356.78;;;4.18;88.36
86138;BME280;76796;49.056;15.810;2024-02-26T08:45:09;95362.03;;;4.18;88.23
86138;BME280;76796;49.056;15.810;2024-02-26T08:47:35;95361.94;;;4.20;87.96
86138;BME280;76796;49.056;15.810;2024-02-26T08:50:00;95358.72;;;4.16;87.87
86138;BME280;76796;49.056;15.810;2024-02-26T08:52:28;95359.81;;;4.14;87.73
86138;BME280;76796;49.056;15.810;2024-02-26T08:54:53;95361.16;;;4.29;87.45
86138;BME280;76796;49.056;15.810;2024-02-26T08:57:19;95356.44;;;4.23;87.40
86138;BME280;76796;49.056;15.810;2024-02-26T08:59:51;95355.66;;;4.11;87.88
86138;BME280;76796;49.056;15.810;2024-02-26T09:02:17;95357.41;;;4.22;87.98
86138;BME280;76796;49.056;15.810;2024-02-26T09:04:42;95352.50;;;4.17;87.46
86138;BME280;76796;49.056;15.810;2024-02-26T09:10:49;95347.94;;;4.31;87.03
86138;BME280;76796;49.056;15.810;2024-02-26T09:13:15;95354.13;;;4.30;87.55
86138;BME280;76796;49.056;15.810;2024-02-26T09:15:47;95357.94;;;4.37;87.32
86138;BME280;76796;49.056;15.810;2024-02-26T09:18:13;95364.44;;;4.42;87.06
86138;BME280;76796;49.056;15.810;2024-02-26T09:20:40;95361.16;;;4.50;86.75
86138;BME280;76796;49.056;15.810;2024-02-26T09:23:06;95361.69;;;4.44;86.38
86138;BME280;76796;49.056;15.810;2024-02-26T09:25:31;95364.31;;;4.44;86.62
86138;BME280;76796;49.056;15.810;2024-02-26T09:27:59;95364.19;;;4.45;86.60
86138;BME280;76796;49.056;15.810;2024-02-26T09:30:24;95368.91;;;4.51;86.74
86138;BME280;76796;49.056;15.810;2024-02-26T09:32:56;95362.91;;;4.61;86.27
86138;BME280;76796;49.056;15.810;2024-02-26T09:35:22;95377.97;;;4.68;85.98
86138;BME280;76796;49.056;15.810;2024-02-26T09:37:47;95382.16;;;4.71;85.96
86138;BME280;76796;49.056;15.810;2024-02-26T09:40:14;95391.44;;;4.75;85.68
86138;BME280;76796;49.056;15.810;2024-02-26T09:42:44;95385.50;;;4.73;84.90
86138;BME280;76796;49.056;15.810;2024-02-26T09:45:18;95385.91;;;4.78;84.88
86138;BME280;76796;49.056;15.810;2024-02-26T09:47:46;95389.13;;;4.81;85.08
86138;BME280;76796;49.056;15.810;2024-02-26T09:50:20;95392.31;;;4.85;85.50
86138;BME280;76796;49.056;15.810;2024-02-26T09:52:48;95393.97;;;4.86;84.80
86138;BME280;76796;49.056;15.810;2024-02-26T09:55:16;95395.97;;;4.94;84.81
86138;BME280;76796;49.056;15.810;2024-02-26T09:57:45;95402.34;;;5.01;84.82
86138;BME280;76796;49.056;15.810;2024-02-26T10:00:21;95407.59;;;5.01;84.94
86138;BME280;76796;49.056;15.810;2024-02-26T10:02:54;95406.97;;;5.18;84.10
86138;BME280;76796;49.056;15.810;2024-02-26T10:05:29;95414.28;;;5.14;84.06
86138;BME280;76796;49.056;15.810;2024-02-26T10:07:55;95402.69;;;5.17;83.20
86138;BME280;76796;49.056;15.810;2024-02-26T10:10:23;95416.00;;;5.25;83.09
86138;BME280;76796;49.056;15.810;2024-02-26T10:12:48;95418.50;;;5.27;83.17
86138;BME280;76796;49.056;15.810;2024-02-26T10:15:14;95408.31;;;5.33;83.28
86138;BME280;76796;49.056;15.810;2024-02-26T10:17:44;95423.09;;;5.34;82.85
86138;BME280;76796;49.056;15.810;2024-02-26T10:20:19;95414.00;;;5.38;81.84
86138;BME280;76796;49.056;15.810;2024-02-26T10:22:53;95424.53;;;5.48;81.42
86138;BME280;76796;49.056;15.810;2024-02-26T10:25:19;95418.38;;;5.59;81.25
86138;BME280;76796;49.056;15.810;2024-02-26T10:27:45;95419.19;;;5.59;81.51
86138;BME280;76796;49.056;15.810;2024-02-26T10:30:20;95418.78;;;5.64;80.88
86138;BME280;76796;49.056;15.810;2024-02-26T10:32:47;95418.94;;;5.62;80.28
86138;BME280;76796;49.056;15.810;2024-02-26T10:35:14;95415.66;;;5.80;80.18
86138;BME280;76796;49.056;15.810;2024-02-26T10:37:40;95409.38;;;5.92;80.15
86138;BME280;76796;49.056;15.810;2024-02-26T10:40:14;95412.69;;;6.03;80.18
86138;BME280;76796;49.056;15.810;2024-02-26T10:42:40;95405.94;;;6.01;79.34
86138;BME280;76796;49.056;15.810;2024-02-26T10:45:12;95406.38;;;6.16;79.62
86138;BME280;76796;49.056;15.810;2024-02-26T10:47:40;95403.91;;;6.24;79.13
86138;BME280;76796;49.056;15.810;2024-02-26T10:50:06;95406.97;;;6.39;78.83
86138;BME280;76796;49.056;15.810;2024-02-26T10:52:33;95409.31;;;6.42;78.12
86138;BME280;76796;49.056;15.810;2024-02-26T10:55:01;95414.13;;;6.37;77.86
86138;BME280;76796;49.056;15.810;2024-02-26T10:57:39;95403.91;;;6.43;77.59
86138;BME280;76796;49.056;15.810;2024-02-26T11:00:06;95399.91;;;6.49;77.42
86138;BME280;76796;49.056;15.810;2024-02-26T11:02:33;95394.63;;;6.49;76.59
86138;BME280;76796;49.056;15.810;2024-02-26T11:05:05;95404.03;;;6.51;77.18
86138;BME280;76796;49.056;15.810;2024-02-26T11:07:32;95405.84;;;6.60;77.34
86138;BME280;76796;49.056;15.810;2024-02-26T11:10:05;95397.53;;;6.65;76.54
86138;BME280;76796;49.056;15.810;2024-02-26T11:12:34;95401.97;;;6.55;76.00
86138;BME280;76796;49.056;15.810;2024-02-26T11:15:10;95401.03;;;6.56;76.04
86138;BME280;76796;49.056;15.810;2024-02-26T11:17:36;95390.22;;;6.59;76.18
86138;BME280;76796;49.056;15.810;2024-02-26T11:20:04;95389.38;;;6.68;75.91
86138;BME280;76796;49.056;15.810;2024-02-26T11:22:30;95396.28;;;6.79;75.96
86138;BME280;76796;49.056;15.810;2024-02-26T11:24:56;95390.75;;;6.82;76.01
86138;BME280;76796;49.056;15.810;2024-02-26T11:27:25;95392.09;;;6.96;76.45
86138;BME280;76796;49.056;15.810;2024-02-26T11:29:56;95399.16;;;6.95;76.00
86138;BME280;76796;49.056;15.810;2024-02-26T11:32:30;95385.97;;;7.05;75.36
86138;BME280;76796;49.056;15.810;2024-02-26T11:34:57;95397.47;;;7.04;74.92
86138;BME280;76796;49.056;15.810;2024-02-26T11:37:23;95389.72;;;7.12;74.80
86138;BME280;76796;49.056;15.810;2024-02-26T11:39:51;95386.41;;;7.10;74.48
86138;BME280;76796;49.056;15.810;2024-02-26T11:42:24;95393.31;;;7.11;74.28
86138;BME280;76796;49.056;15.810;2024-02-26T11:44:51;95385.81;;;7.16;74.23
86138;BME280;76796;49.056;15.810;2024-02-26T11:47:21;95388.59;;;7.24;74.27
86138;BME280;76796;49.056;15.810;2024-02-26T11:49:53;95389.06;;;7.37;74.31
86138;BME280;76796;49.056;15.810;2024-02-26T11:52:19;95391.81;;;7.45;74.25
86138;BME280;76796;49.056;15.810;2024-02-26T11:54:52;95382.94;;;7.56;74.02
86138;BME280;76796;49.056;15.810;2024-02-26T12:02:44;95375.34;;;7.71;72.30
86138;BME280;76796;49.056;15.810;2024-02-26T12:05:20;95388.25;;;7.74;72.38
86138;BME280;76796;49.056;15.810;2024-02-26T12:07:47;95385.00;;;7.80;72.33
86138;BME280;76796;49.056;15.810;2024-02-26T12:10:24;95383.66;;;7.76;72.54
86138;BME280;76796;49.056;15.810;2024-02-26T12:13:16;95385.63;;;7.74;72.32
86138;BME280;76796;49.056;15.810;2024-02-26T12:16:06;95378.63;;;7.82;72.13
86138;BME280;76796;49.056;15.810;2024-02-26T12:18:31;95380.22;;;7.93;72.18
86138;BME280;76796;49.056;15.810;2024-02-26T12:21:04;95375.94;;;7.92;71.97
86138;BME280;76796;49.056;15.810;2024-02-26T12:23:30;95374.34;;;7.99;71.41
86138;BME280;76796;49.056;15.810;2024-02-26T12:26:02;95370.69;;;8.10;70.93
86138;BME280;76796;49.056;15.810;2024-02-26T12:28:31;95377.69;;;8.19;71.11
86138;BME280;76796;49.056;15.810;2024-02-26T12:30:57;95379.91;;;8.24;70.90
86138;BME280;76796;49.056;15.810;2024-02-26T12:33:25;95384.47;;;8.22;70.68
86138;BME280;76796;49.056;15.810;2024-02-26T12:35:52;95383.63;;;8.21;70.94
86138;BME280;76796;49.056;15.810;2024-02-26T12:38:24;95387.41;;;8.19;70.87
86138;BME280;76796;49.056;15.810;2024-02-26T12:40:50;95385.28;;;8.22;70.46
86138;BME280;76796;49.056;15.810;2024-02-26T12:43:16;95382.59;;;8.14;70.62
86138;BME280;76796;49.056;15.810;2024-02-26T12:45:47;95377.28;;;8.24;71.45
86138;BME280;76796;49.056;15.810;2024-02-26T12:48:13;95374.91;;;8.21;71.10
86138;BME280;76796;49.056;15.810;2024-02-26T12:50:39;95376.13;;;8.26;71.31
86138;BME280;76796;49.056;15.810;2024-02-26T12:53:05;95380.09;;;8.40;71.09
86138;BME280;76796;49.056;15.810;2024-02-26T12:55:37;95369.97;;;8.35;70.17
86138;BME280;76796;49.056;15.810;2024-02-26T12:58:05;95377.81;;;8.45;70.37
86138;BME280;76796;49.056;15.810;2024-02-26T13:00:31;95382.59;;;8.41;70.13
86138;BME280;76796;49.056;15.810;2024-02-26T13:02:59;95381.50;;;8.52;69.46
86138;BME280;76796;49.056;15.810;2024-02-26T13:05:25;95389.81;;;8.57;69.52
86138;BME280;76796;49.056;15.810;2024-02-26T13:07:51;95378.97;;;8.60;69.27
86138;BME280;76796;49.056;15.810;2024-02-26T13:10:18;95387.84;;;8.41;69.08
86138;BME280;76796;49.056;15.810;2024-02-26T13:12:51;95389.34;;;8.44;69.36
86138;BME280;76796;49.056;15.810;2024-02-26T13:15:18;95388.13;;;8.56;69.17
86138;BME280;76796;49.056;15.810;2024-02-26T13:17:48;95394.47;;;8.63;68.84
86138;BME280;76796;49.056;15.810;2024-02-26T13:20:28;95395.47;;;8.62;68.37